createdAt,value
2022-09-02T00:00:26.376Z,85.28
2022-09-02T00:02:58.834Z,85.29
2022-09-02T00:05:28.633Z,85.28
2022-09-02T00:07:58.358Z,85.43
2022-09-02T00:10:28.536Z,85.46
2022-09-02T00:12:58.256Z,85.54
2022-09-02T00:15:28.142Z,85.53
2022-09-02T00:18:01.071Z,85.59
2022-09-02T00:20:31.379Z,85.63
2022-09-02T00:23:01.182Z,85.64
2022-09-02T00:25:30.925Z,85.69
2022-09-02T00:28:00.721Z,85.69
2022-09-02T00:30:31.197Z,85.81
2022-09-02T00:33:04.625Z,85.92
2022-09-02T00:35:35.542Z,85.91
2022-09-02T00:38:05.537Z,85.92
2022-09-02T00:40:36.714Z,85.98
2022-09-02T00:43:09.606Z,86.01
2022-09-02T00:45:39.798Z,85.84
2022-09-02T00:48:12.206Z,85.97
2022-09-02T00:50:41.944Z,85.99
2022-09-02T00:53:14.290Z,85.96
2022-09-02T00:55:47.764Z,86.07
2022-09-02T00:58:23.220Z,86.14
2022-09-02T01:00:56.793Z,86.20
2022-09-02T01:03:32.554Z,86.10
2022-09-02T01:06:03.158Z,86.12
2022-09-02T01:08:36.926Z,86.12
2022-09-02T01:11:08.233Z,86.40
2022-09-02T01:13:41.452Z,86.31
2022-09-02T01:16:18.070Z,86.45
2022-09-02T01:18:53.593Z,86.33
2022-09-02T01:21:23.536Z,86.34
2022-09-02T01:23:56.908Z,86.43
2022-09-02T01:26:26.754Z,86.55
2022-09-02T01:28:56.499Z,86.61
2022-09-02T01:31:26.263Z,86.67
2022-09-02T01:33:56.130Z,86.61
2022-09-02T01:36:25.950Z,86.61
2022-09-02T01:38:58.346Z,86.68
2022-09-02T01:41:28.067Z,86.85
2022-09-02T01:43:57.810Z,86.87
2022-09-02T01:46:27.586Z,86.90
2022-09-02T01:48:57.383Z,86.90
2022-09-02T01:51:27.333Z,86.80
2022-09-02T01:53:59.685Z,86.84
2022-09-02T01:56:29.470Z,86.88
2022-09-02T01:58:59.191Z,86.81
2022-09-02T02:01:28.877Z,86.95
2022-09-02T02:03:59.312Z,86.82
2022-09-02T02:06:29.085Z,86.89
2022-09-02T02:09:01.445Z,86.83
2022-09-02T02:11:31.156Z,86.91
2022-09-02T02:14:01.014Z,86.86
2022-09-02T02:16:30.827Z,86.82
2022-09-02T02:19:01.013Z,86.71
2022-09-02T02:21:31.508Z,86.64
2022-09-02T02:24:04.043Z,86.62
2022-09-02T02:26:34.223Z,86.54
2022-09-02T02:29:04.128Z,86.64
2022-09-02T02:31:33.978Z,86.51
2022-09-02T02:34:04.360Z,86.52
2022-09-02T02:36:34.405Z,86.43
2022-09-02T02:39:07.125Z,86.37
2022-09-02T02:41:37.132Z,86.43
2022-09-02T02:44:07.388Z,86.33
2022-09-02T02:46:37.254Z,86.29
2022-09-02T02:49:08.802Z,86.30
2022-09-02T02:51:38.866Z,86.32
2022-09-02T02:54:14.572Z,86.25
2022-09-02T02:56:44.707Z,86.29
2022-09-02T02:59:14.963Z,86.38
2022-09-02T03:01:44.808Z,86.37
2022-09-02T03:04:14.624Z,86.26
2022-09-02T03:06:44.398Z,86.27
2022-09-02T03:09:16.848Z,86.37
2022-09-02T03:11:46.780Z,86.21
2022-09-02T03:14:17.120Z,86.34
2022-09-02T03:16:46.908Z,86.28
2022-09-02T03:19:17.015Z,86.15
2022-09-02T03:21:46.851Z,86.14
2022-09-02T03:24:19.259Z,86.29
2022-09-02T03:26:50.052Z,86.15
2022-09-02T03:29:19.742Z,86.15
2022-09-02T03:31:49.610Z,86.18
2022-09-02T03:34:19.631Z,86.07
2022-09-02T03:36:49.444Z,86.13
2022-09-02T03:39:21.792Z,86.21
2022-09-02T03:41:52.162Z,86.08
2022-09-02T03:44:22.146Z,86.16
2022-09-02T03:46:52.193Z,86.20
2022-09-02T03:49:22.228Z,86.29
2022-09-02T03:51:52.050Z,86.24
2022-09-02T03:54:24.558Z,86.20
2022-09-02T03:56:54.575Z,86.24
2022-09-02T03:59:25.200Z,86.41
2022-09-02T04:01:55.758Z,86.28
2022-09-02T04:04:25.623Z,86.30
2022-09-02T04:06:55.427Z,86.32
2022-09-02T04:09:28.124Z,86.30
2022-09-02T04:11:57.916Z,86.46
2022-09-02T04:14:27.721Z,86.43
2022-09-02T04:16:57.429Z,86.55
2022-09-02T04:19:27.179Z,86.50
2022-09-02T04:21:56.991Z,86.53
2022-09-02T04:24:29.488Z,86.58
2022-09-02T04:27:03.464Z,86.70
2022-09-02T04:29:34.480Z,86.71
2022-09-02T04:32:04.177Z,86.65
2022-09-02T04:34:34.023Z,86.67
2022-09-02T04:37:03.799Z,86.72
2022-09-02T04:39:36.207Z,86.89
2022-09-02T04:42:06.196Z,86.81
2022-09-02T04:44:36.468Z,86.91
2022-09-02T04:47:06.239Z,86.80
2022-09-02T04:49:36.013Z,87.01
2022-09-02T04:52:06.662Z,87.04
2022-09-02T04:54:39.376Z,87.15
2022-09-02T04:57:09.183Z,86.96
2022-09-02T04:59:39.248Z,87.14
2022-09-02T05:02:09.172Z,87.07
2022-09-02T05:04:39.258Z,87.16
2022-09-02T05:07:08.995Z,87.37
2022-09-02T05:09:41.480Z,87.64
2022-09-02T05:12:11.722Z,87.58
2022-09-02T05:14:41.758Z,87.88
2022-09-02T05:17:11.468Z,87.75
2022-09-02T05:19:41.280Z,87.83
2022-09-02T05:22:10.988Z,87.44
2022-09-02T05:24:43.669Z,87.36
2022-09-02T05:27:13.439Z,87.18
2022-09-02T05:29:45.440Z,87.18
2022-09-02T05:32:15.468Z,87.04
2022-09-02T05:34:45.262Z,87.13
2022-09-02T05:37:15.045Z,87.13
2022-09-02T05:39:47.410Z,87.07
2022-09-02T05:42:17.177Z,87.04
2022-09-02T05:44:47.084Z,86.99
2022-09-02T05:47:16.853Z,87.17
2022-09-02T05:49:46.688Z,87.10
2022-09-02T05:52:18.237Z,87.21
2022-09-02T05:54:50.774Z,87.25
2022-09-02T05:57:21.149Z,87.24
2022-09-02T05:59:56.195Z,87.13
2022-09-02T06:02:27.941Z,87.20
2022-09-02T06:04:57.989Z,87.37
2022-09-02T06:07:28.471Z,87.19
2022-09-02T06:10:00.810Z,87.28
2022-09-02T06:12:31.292Z,87.38
2022-09-02T06:15:01.505Z,87.42
2022-09-02T06:17:31.224Z,87.58
2022-09-02T06:20:00.940Z,87.66
2022-09-02T06:22:30.675Z,87.47
2022-09-02T06:25:03.282Z,87.47
2022-09-02T06:27:33.700Z,87.44
2022-09-02T06:30:03.572Z,87.46
2022-09-02T06:32:33.320Z,87.31
2022-09-02T06:35:03.202Z,87.37
2022-09-02T06:37:32.941Z,87.15
2022-09-02T06:40:05.568Z,87.23
2022-09-02T06:42:35.362Z,87.07
2022-09-02T06:45:05.289Z,87.12
2022-09-02T06:47:35.129Z,87.12
2022-09-02T06:50:05.039Z,87.05
2022-09-02T06:52:34.756Z,87.34
2022-09-02T06:55:08.025Z,87.33
2022-09-02T06:57:37.724Z,87.55
2022-09-02T07:00:10.005Z,87.55
2022-09-02T07:02:40.440Z,87.62
2022-09-02T07:05:11.790Z,87.29
2022-09-02T07:07:43.137Z,86.96
2022-09-02T07:10:16.954Z,86.59
2022-09-02T07:12:46.707Z,86.13
2022-09-02T07:15:16.561Z,85.73
2022-09-02T07:17:46.490Z,85.42
2022-09-02T07:20:16.589Z,85.21
2022-09-02T07:22:46.382Z,84.71
2022-09-02T07:25:19.464Z,84.32
2022-09-02T07:27:51.500Z,83.90
2022-09-02T07:30:21.717Z,83.23
2022-09-02T07:32:51.446Z,82.88
2022-09-02T07:35:21.206Z,82.28
2022-09-02T07:37:51.089Z,81.77
2022-09-02T07:40:24.639Z,81.25
2022-09-02T07:42:54.601Z,80.84
2022-09-02T07:45:24.597Z,80.24
2022-09-02T07:47:55.211Z,79.92
2022-09-02T07:50:25.292Z,79.25
2022-09-02T07:52:55.310Z,78.67
2022-09-02T07:55:31.147Z,78.30
2022-09-02T07:58:01.595Z,77.86
2022-09-02T08:00:31.354Z,77.55
2022-09-02T08:03:01.952Z,77.12
2022-09-02T08:05:32.448Z,76.73
2022-09-02T08:08:03.029Z,76.50
2022-09-02T08:10:36.814Z,76.20
2022-09-02T08:13:06.979Z,75.70
2022-09-02T08:15:39.059Z,75.46
2022-09-02T08:18:17.539Z,75.20
2022-09-02T08:20:52.307Z,74.81
2022-09-02T08:23:37.683Z,74.55
2022-09-02T08:26:11.379Z,74.32
2022-09-02T08:28:41.224Z,74.11
2022-09-02T08:31:10.956Z,74.07
2022-09-02T08:33:40.676Z,73.73
2022-09-02T08:36:15.123Z,73.56
2022-09-02T08:38:45.564Z,73.33
2022-09-02T08:41:23.870Z,72.96
2022-09-02T08:43:56.216Z,72.75
2022-09-02T08:46:28.951Z,72.75
2022-09-02T08:49:01.445Z,72.41
2022-09-02T08:51:37.581Z,72.08
2022-09-02T08:54:10.835Z,71.89
2022-09-02T08:56:44.544Z,71.36
2022-09-02T08:59:16.000Z,71.07
2022-09-02T09:01:51.478Z,71.19
2022-09-02T09:04:27.348Z,70.88
2022-09-02T09:07:10.341Z,70.70
2022-09-02T09:09:56.637Z,70.58
2022-09-02T09:12:39.826Z,70.46
2022-09-02T09:15:16.637Z,69.96
2022-09-02T09:17:51.504Z,69.52
2022-09-02T09:20:24.488Z,69.17
2022-09-02T09:22:59.363Z,69.02
2022-09-02T09:25:30.646Z,68.85
2022-09-02T09:30:33.151Z,68.18
2022-09-02T09:33:04.460Z,67.86
2022-09-02T09:35:51.402Z,67.53
2022-09-02T09:38:32.703Z,66.93
2022-09-02T09:41:20.466Z,66.71
2022-09-02T09:43:52.952Z,66.70
2022-09-02T09:46:32.349Z,66.58
2022-09-02T09:49:02.178Z,66.17
2022-09-02T09:51:49.661Z,65.99
2022-09-02T09:54:21.153Z,66.22
2022-09-02T09:56:50.997Z,66.15
2022-09-02T09:59:44.039Z,65.98
2022-09-02T10:02:23.919Z,65.69
2022-09-02T10:04:55.107Z,65.91
2022-09-02T10:07:38.809Z,65.85
2022-09-02T10:10:19.405Z,65.70
2022-09-02T10:12:50.802Z,65.61
2022-09-02T10:15:41.157Z,65.45
2022-09-02T10:18:23.619Z,65.15
2022-09-02T10:21:16.176Z,65.01
2022-09-02T10:23:57.061Z,65.15
2022-09-02T10:26:35.407Z,65.22
2022-09-02T10:29:35.482Z,65.36
2022-09-02T10:32:29.218Z,65.45
2022-09-02T10:35:10.693Z,65.00
2022-09-02T10:37:52.195Z,64.56
2022-09-02T10:40:29.852Z,64.36
2022-09-02T10:43:07.366Z,64.29
2022-09-02T10:45:40.723Z,63.91
2022-09-02T10:48:24.465Z,63.67
2022-09-02T10:50:58.292Z,63.51
2022-09-02T10:53:45.963Z,63.46
2022-09-02T10:56:21.679Z,63.12
2022-09-02T11:01:53.736Z,63.13
2022-09-02T11:04:37.992Z,63.20
2022-09-02T11:07:11.001Z,62.89
2022-09-02T11:09:45.864Z,62.86
2022-09-02T11:12:21.295Z,62.63
2022-09-02T11:15:01.801Z,62.70
2022-09-02T11:17:38.178Z,62.69
2022-09-02T11:20:17.890Z,62.50
2022-09-02T11:22:56.280Z,62.41
2022-09-02T11:25:30.684Z,62.49
2022-09-02T11:28:09.416Z,62.10
2022-09-02T11:30:48.544Z,61.72
2022-09-02T11:33:24.509Z,61.57
2022-09-02T11:35:56.937Z,61.45
2022-09-02T11:38:37.280Z,61.34
2022-09-02T11:41:43.336Z,61.28
2022-09-02T11:44:40.438Z,60.81
2022-09-02T11:47:39.408Z,60.49
2022-09-02T11:50:38.739Z,59.91
2022-09-02T11:53:23.314Z,59.65
2022-09-02T11:55:57.365Z,59.47
2022-09-02T11:58:41.428Z,59.15
2022-09-02T12:01:33.265Z,59.03
2022-09-02T12:04:55.868Z,59.01
2022-09-02T12:07:33.858Z,58.56
2022-09-02T12:10:06.635Z,58.67
2022-09-02T12:13:09.622Z,58.76
2022-09-02T12:15:40.785Z,58.71
2022-09-02T12:18:17.481Z,58.72
2022-09-02T12:21:16.198Z,58.35
2022-09-02T12:24:11.784Z,58.23
2022-09-02T12:27:24.555Z,58.10
2022-09-02T12:29:55.591Z,58.07
2022-09-02T12:33:09.858Z,57.73
2022-09-02T12:35:57.735Z,57.72
2022-09-02T12:38:39.247Z,57.44
2022-09-02T12:41:20.799Z,57.34
2022-09-02T12:44:24.971Z,57.37
2022-09-02T12:47:04.219Z,57.46
2022-09-02T12:49:46.199Z,57.48
2022-09-02T12:52:43.640Z,57.23
2022-09-02T12:55:21.368Z,57.38
2022-09-02T12:57:54.078Z,57.50
2022-09-02T13:00:38.201Z,57.32
2022-09-02T13:03:27.817Z,57.14
2022-09-02T13:06:03.240Z,57.00
2022-09-02T13:08:55.605Z,56.93
2022-09-02T13:11:58.671Z,56.81
2022-09-02T13:15:00.811Z,56.97
2022-09-02T13:17:48.611Z,57.07
2022-09-02T13:20:46.471Z,57.28
2022-09-02T13:23:56.068Z,57.21
2022-09-02T13:26:53.909Z,57.19
2022-09-02T13:30:01.736Z,57.11
2022-09-02T13:32:37.645Z,57.06
2022-09-02T13:35:12.634Z,57.03
2022-09-02T13:37:45.472Z,56.98
2022-09-02T13:40:22.077Z,57.03
2022-09-02T13:42:54.031Z,56.86
2022-09-02T13:45:25.882Z,56.81
2022-09-02T13:48:00.520Z,56.72
2022-09-02T13:50:32.408Z,56.83
2022-09-02T13:53:45.534Z,56.77
2022-09-02T13:55:57.510Z,56.61
2022-09-02T13:58:40.367Z,56.36
2022-09-02T14:01:25.773Z,56.32
2022-09-02T14:04:01.299Z,56.24
2022-09-02T14:06:36.752Z,55.94
2022-09-02T14:09:10.602Z,56.02
2022-09-02T14:11:45.863Z,55.94
2022-09-02T14:14:18.144Z,56.03
2022-09-02T14:16:47.930Z,55.99
2022-09-02T14:19:29.033Z,55.88
2022-09-02T14:22:00.768Z,55.67
2022-09-02T14:24:32.509Z,55.46
2022-09-02T14:27:03.633Z,55.50
2022-09-02T14:29:34.307Z,55.37
2022-09-02T14:32:15.450Z,55.17
2022-09-02T14:34:49.892Z,55.11
2022-09-02T14:37:28.748Z,55.22
2022-09-02T14:40:12.706Z,55.04
2022-09-02T14:42:47.698Z,54.91
2022-09-02T14:45:18.035Z,55.01
2022-09-02T14:47:47.973Z,55.10
2022-09-02T14:50:32.788Z,55.01
2022-09-02T14:53:07.699Z,55.04
2022-09-02T14:55:52.679Z,54.48
2022-09-02T14:58:27.386Z,54.36
2022-09-02T15:00:59.055Z,54.44
2022-09-02T15:03:29.654Z,54.68
2022-09-02T15:06:01.967Z,54.62
2022-09-02T15:08:31.715Z,54.37
2022-09-02T15:11:02.900Z,54.52
2022-09-02T15:13:35.711Z,54.46
2022-09-02T15:16:06.363Z,54.33
2022-09-02T15:18:36.559Z,54.18
2022-09-02T15:21:09.837Z,54.22
2022-09-02T15:23:41.167Z,54.04
2022-09-02T15:26:11.792Z,54.11
2022-09-02T15:28:42.072Z,53.93
2022-09-02T15:31:11.850Z,54.10
2022-09-02T15:33:41.695Z,54.11
2022-09-02T15:36:15.797Z,54.06
2022-09-02T15:38:45.603Z,53.89
2022-09-02T15:41:18.315Z,53.69
2022-09-02T15:43:49.388Z,53.61
2022-09-02T15:46:27.855Z,53.61
2022-09-02T15:49:02.331Z,53.69
2022-09-02T15:51:36.160Z,53.88
2022-09-02T15:54:08.537Z,53.72
2022-09-02T15:56:40.470Z,53.56
2022-09-02T15:59:12.496Z,53.65
2022-09-02T16:01:44.386Z,53.60
2022-09-02T16:04:15.415Z,53.56
2022-09-02T16:06:50.193Z,53.73
2022-09-02T16:09:21.207Z,53.83
2022-09-02T16:11:52.858Z,53.64
2022-09-02T16:14:23.619Z,53.92
2022-09-02T16:16:57.633Z,54.12
2022-09-02T16:19:30.368Z,54.38
2022-09-02T16:22:02.885Z,54.50
2022-09-02T16:24:32.599Z,54.45
2022-09-02T16:27:03.263Z,54.50
2022-09-02T16:29:33.183Z,54.60
2022-09-02T16:32:23.682Z,54.95
2022-09-02T16:34:53.772Z,55.02
2022-09-02T16:37:26.224Z,55.40
2022-09-02T16:39:55.974Z,55.57
2022-09-02T16:42:26.137Z,55.71
2022-09-02T16:44:55.930Z,55.84
2022-09-02T16:47:25.671Z,55.75
2022-09-02T16:49:55.420Z,55.88
2022-09-02T16:52:27.748Z,56.00
2022-09-02T16:54:57.461Z,56.21
2022-09-02T16:57:27.198Z,56.27
2022-09-02T16:59:56.893Z,56.41
2022-09-02T17:02:28.390Z,56.47
2022-09-02T17:04:58.118Z,56.82
2022-09-02T17:07:30.516Z,56.92
2022-09-02T17:10:00.223Z,56.93
2022-09-02T17:12:29.940Z,57.20
2022-09-02T17:14:59.652Z,57.16
2022-09-02T17:17:29.371Z,57.22
2022-09-02T17:19:59.088Z,57.32
2022-09-02T17:22:31.425Z,57.38
2022-09-02T17:25:01.128Z,57.56
2022-09-02T17:27:30.851Z,57.64
2022-09-02T17:30:00.556Z,57.63
2022-09-02T17:32:30.272Z,57.91
2022-09-02T17:35:00.058Z,57.89
2022-09-02T17:37:32.873Z,57.92
2022-09-02T17:40:02.710Z,57.99
2022-09-02T17:42:30.339Z,58.01
2022-09-02T17:45:01.388Z,58.15
2022-09-02T17:47:31.921Z,58.25
2022-09-02T17:50:01.639Z,58.30
2022-09-02T17:52:33.978Z,58.59
2022-09-02T17:55:03.962Z,58.69
2022-09-02T17:57:43.204Z,58.74
2022-09-02T18:00:15.605Z,58.83
2022-09-02T18:03:02.224Z,58.70
2022-09-02T18:05:39.188Z,58.83
2022-09-02T18:08:18.538Z,58.91
2022-09-02T18:10:57.508Z,59.04
2022-09-02T18:13:37.057Z,59.13
2022-09-02T18:16:25.795Z,59.24
2022-09-02T18:19:04.560Z,59.50
2022-09-02T18:21:43.914Z,59.67
2022-09-02T18:24:26.840Z,59.85
2022-09-02T18:27:05.831Z,59.99
2022-09-02T18:29:49.815Z,60.08
2022-09-02T18:32:35.086Z,60.36
2022-09-02T18:35:18.772Z,60.43
2022-09-02T18:38:06.949Z,60.56
2022-09-02T18:40:50.276Z,60.74
2022-09-02T18:43:27.901Z,60.87
2022-09-02T18:46:02.208Z,60.94
2022-09-02T18:48:35.792Z,61.26
2022-09-02T18:51:11.554Z,61.21
2022-09-02T18:53:47.996Z,61.51
2022-09-02T18:56:22.544Z,61.54
2022-09-02T18:58:57.348Z,61.67
2022-09-02T19:01:30.178Z,62.07
2022-09-02T19:04:02.205Z,62.05
2022-09-02T19:06:36.233Z,62.39
2022-09-02T19:09:05.846Z,62.40
2022-09-02T19:11:40.878Z,62.64
2022-09-02T19:14:21.901Z,62.79
2022-09-02T19:16:51.691Z,62.83
2022-09-02T19:19:21.847Z,63.08
2022-09-02T19:21:55.315Z,63.19
2022-09-02T19:24:31.631Z,63.17
2022-09-02T19:27:07.809Z,63.28
2022-09-02T19:29:44.097Z,63.53
2022-09-02T19:32:15.499Z,63.62
2022-09-02T19:34:48.222Z,63.72
2022-09-02T19:37:18.227Z,63.81
2022-09-02T19:39:51.369Z,63.76
2022-09-02T19:42:24.450Z,63.97
2022-09-02T19:44:54.168Z,64.06
2022-09-02T19:48:07.442Z,64.19
2022-09-02T19:50:13.926Z,64.32
2022-09-02T19:52:45.897Z,64.42
2022-09-02T19:55:18.224Z,64.32
2022-09-02T19:57:50.576Z,64.59
2022-09-02T20:00:20.788Z,64.57
2022-09-02T20:02:51.269Z,64.61
2022-09-02T20:05:21.752Z,64.84
2022-09-02T20:07:51.453Z,64.79
2022-09-02T20:10:28.231Z,65.01
2022-09-02T20:13:02.395Z,64.93
2022-09-02T20:15:32.112Z,65.06
2022-09-02T20:18:11.636Z,65.17
2022-09-02T20:20:45.880Z,65.30
2022-09-02T20:23:17.407Z,65.55
2022-09-02T20:26:10.444Z,65.46
2022-09-02T20:28:57.799Z,65.59
2022-09-02T20:31:43.549Z,65.87
2022-09-02T20:34:23.803Z,66.02
2022-09-02T20:37:01.660Z,66.12
2022-09-02T20:39:47.585Z,66.07
2022-09-02T20:42:33.180Z,66.10
2022-09-02T20:45:15.927Z,66.35
2022-09-02T20:47:59.116Z,66.56
2022-09-02T20:50:41.330Z,66.54
2022-09-02T20:53:25.802Z,66.72
2022-09-02T20:56:02.099Z,66.82
2022-09-02T20:58:42.272Z,66.84
2022-09-02T21:01:21.596Z,66.73
2022-09-02T21:04:00.551Z,66.90
2022-09-02T21:06:36.763Z,66.95
2022-09-02T21:09:15.606Z,66.80
2022-09-02T21:11:51.421Z,66.80
2022-09-02T21:14:25.321Z,66.78
2022-09-02T21:17:05.401Z,66.66
2022-09-02T21:19:42.725Z,66.73
2022-09-02T21:22:21.296Z,66.65
2022-09-02T21:24:57.404Z,66.71
2022-09-02T21:27:30.552Z,66.51
2022-09-02T21:30:05.054Z,66.56
2022-09-02T21:32:42.936Z,66.54
2022-09-02T21:35:16.563Z,66.44
2022-09-02T21:37:48.333Z,66.33
2022-09-02T21:40:20.897Z,66.11
2022-09-02T21:43:09.801Z,66.17
2022-09-02T21:45:47.908Z,66.10
2022-09-02T21:48:39.606Z,65.95
2022-09-02T21:51:20.513Z,65.81
2022-09-02T21:54:04.348Z,65.80
2022-09-02T21:56:51.527Z,65.72
2022-09-02T21:59:34.646Z,65.83
2022-09-02T22:02:11.474Z,65.65
2022-09-02T22:04:54.911Z,65.60
2022-09-02T22:07:30.821Z,65.35
2022-09-02T22:10:09.204Z,65.38
2022-09-02T22:12:41.534Z,65.22
2022-09-02T22:15:20.210Z,65.02
2022-09-02T22:17:56.311Z,65.13
2022-09-02T22:20:34.985Z,64.96
2022-09-02T22:23:09.733Z,64.87
2022-09-02T22:25:39.957Z,64.94
2022-09-02T22:28:13.888Z,64.87
2022-09-02T22:30:50.410Z,64.95
2022-09-02T22:33:25.767Z,64.97
2022-09-02T22:36:03.540Z,64.81
2022-09-02T22:38:41.935Z,64.97
2022-09-02T22:41:24.281Z,65.01
2022-09-02T22:44:00.381Z,64.89
2022-09-02T22:46:54.123Z,64.90
2022-09-02T22:49:37.364Z,65.03
2022-09-02T22:52:37.500Z,64.98
2022-09-02T22:55:09.510Z,65.16
2022-09-02T22:57:50.412Z,65.19
2022-09-02T23:00:23.112Z,65.05
2022-09-02T23:03:03.707Z,65.32
2022-09-02T23:05:49.488Z,65.21
2022-09-02T23:08:23.841Z,65.48
2022-09-02T23:11:00.212Z,65.46
2022-09-02T23:13:46.697Z,65.66
2022-09-02T23:16:26.546Z,65.71
2022-09-02T23:19:10.109Z,65.98
2022-09-02T23:21:51.295Z,65.97
2022-09-02T23:24:35.125Z,66.10
2022-09-02T23:27:12.440Z,66.42
2022-09-02T23:29:44.911Z,66.44
2022-09-02T23:32:34.280Z,66.68
2022-09-02T23:35:22.494Z,66.79
2022-09-02T23:38:11.129Z,67.06
2022-09-02T23:40:46.455Z,67.25
2022-09-02T23:43:18.480Z,67.27
2022-09-02T23:45:50.012Z,67.51
2022-09-02T23:48:44.509Z,67.59
2022-09-02T23:51:20.885Z,67.70
2022-09-02T23:54:03.878Z,67.82
2022-09-02T23:56:54.644Z,68.16
2022-09-02T23:59:39.492Z,68.22
